Princeville, IL

9:45 PM CDT on July 29, 2016 (GMT -0500)
Lakes | | Change Station

Elev 735 ft 40.90 °N, 89.84 °W | Updated 5 minutes ago

Scattered Clouds
Scattered Clouds
67.8 °F
Feels Like 67.8 °F
N
0.0
Wind Variable Wind from North
Gusts 0.0 mph

Today
High -- | Low -- °F
--% Chance of Precip.
Yesterday
High -- | Low -- °F
Precip. -- in
Pressure 29.92 in
Visibility 10.0 miles
Clouds Scattered Clouds 3200 ft
Scattered Clouds 4100 ft
Dew Point 67 °F
Humidity 96%
Rainfall 0.34 in
Snow Depth Not available.
5:53 AM 8:17 PM
Waning Crescent, 17% visible
METAR KPIA 300154Z 30005KT 10SM SCT032 SCT041 23/20 A2993 RMK AO2 SLP130 T02330200
Pressure 29.92 in
Visibility 10.0 miles
Clouds Scattered Clouds 3200 ft
Scattered Clouds 4100 ft
Dew Point 67 °F
Humidity 96%
Rainfall 0.34 in
Snow Depth Not available.
5:53 AM 8:17 PM
Waning Crescent, 17% visible
METAR KPIA 300154Z 30005KT 10SM SCT032 SCT041 23/20 A2993 RMK AO2 SLP130 T02330200

10-Day Weather Forecast

Almanac

Astronomy

Jul. 29, 2016 Rise Set
Actual Time
Civil Twilight
Nautical Twilight
Astronomical Twilight
Moon
Length of Visible Light
Length of Day
Tomorrow will be .
, % of the Moon is Illuminated

Today's Extremes

State Highs State Lows

Community

WunderPhotos

Upload Photos

1,928,491 photos uploaded!

WunderBlog® & News

Nearby

Air Quality

  Air Quality AQ Index Pollutant
Not available.

Snow Depth

Station Depth Elevation

Earthquake Activity

City Distance Mag. Time & Date
Minimum magnitude displayed is 2.5.

Coastal Water Temperatures

Place Temperature

Stations

Nearby Weather Stations

Station Location Temp. Windchill Dew Point Humidity Wind Precip. Elev Updated Type
                   

Watches & Warnings

There are currently no watches in effect.